sensor_id;sensor_type;location;lat;lon;timestamp;temperature;humidity
66920;DHT22;53831;52.090;17.026;2023-05-07T00:00:11;7.60;99.90
66920;DHT22;53831;52.090;17.026;2023-05-07T00:01:12;7.60;99.90
66920;DHT22;53831;52.090;17.026;2023-05-07T00:02:13;7.60;99.90
66920;DHT22;53831;52.090;17.026;2023-05-07T00:03:14;7.60;99.90
66920;DHT22;53831;52.090;17.026;2023-05-07T00:04:15;7.60;99.90
66920;DHT22;53831;52.090;17.026;2023-05-07T00:05:16;7.60;99.90
66920;DHT22;53831;52.090;17.026;2023-05-07T00:06:16;7.60;99.90
66920;DHT22;53831;52.090;17.026;2023-05-07T00:07:17;7.60;99.90
66920;DHT22;53831;52.090;17.026;2023-05-07T00:08:18;7.60;99.90
66920;DHT22;53831;52.090;17.026;2023-05-07T00:09:18;7.60;99.90
66920;DHT22;53831;52.090;17.026;2023-05-07T00:10:19;7.60;99.90
66920;DHT22;53831;52.090;17.026;2023-05-07T00:11:20;7.60;99.90
66920;DHT22;53831;52.090;17.026;2023-05-07T00:12:21;7.60;99.90
66920;DHT22;53831;52.090;17.026;2023-05-07T00:13:22;7.60;99.90
66920;DHT22;53831;52.090;17.026;2023-05-07T00:14:22;7.60;99.90
66920;DHT22;53831;52.090;17.026;2023-05-07T00:15:23;7.60;99.90
66920;DHT22;53831;52.090;17.026;2023-05-07T00:16:23;7.60;99.90
66920;DHT22;53831;52.090;17.026;2023-05-07T00:17:24;7.60;99.90
66920;DHT22;53831;52.090;17.026;2023-05-07T00:18:24;7.60;99.90
66920;DHT22;53831;52.090;17.026;2023-05-07T00:19:25;7.60;99.90
66920;DHT22;53831;52.090;17.026;2023-05-07T00:20:26;7.60;99.90
66920;DHT22;53831;52.090;17.026;2023-05-07T00:21:27;7.60;99.90
66920;DHT22;53831;52.090;17.026;2023-05-07T00:22:27;7.60;99.90
66920;DHT22;53831;52.090;17.026;2023-05-07T00:23:30;7.60;99.90
66920;DHT22;53831;52.090;17.026;2023-05-07T00:24:30;7.60;99.90
66920;DHT22;53831;52.090;17.026;2023-05-07T00:25:31;7.60;99.90
66920;DHT22;53831;52.090;17.026;2023-05-07T00:26:32;7.60;99.90
66920;DHT22;53831;52.090;17.026;2023-05-07T00:27:32;7.60;99.90
66920;DHT22;53831;52.090;17.026;2023-05-07T00:28:33;7.60;99.90
66920;DHT22;53831;52.090;17.026;2023-05-07T00:29:34;7.60;99.90
66920;DHT22;53831;52.090;17.026;2023-05-07T00:30:34;7.60;99.90
66920;DHT22;53831;52.090;17.026;2023-05-07T00:31:35;7.60;99.90
66920;DHT22;53831;52.090;17.026;2023-05-07T00:32:35;7.60;99.90
66920;DHT22;53831;52.090;17.026;2023-05-07T00:33:37;7.60;99.90
66920;DHT22;53831;52.090;17.026;2023-05-07T00:34:38;7.60;99.90
66920;DHT22;53831;52.090;17.026;2023-05-07T00:35:39;7.60;99.90
66920;DHT22;53831;52.090;17.026;2023-05-07T00:36:40;7.60;99.90
66920;DHT22;53831;52.090;17.026;2023-05-07T00:37:41;7.60;99.90
66920;DHT22;53831;52.090;17.026;2023-05-07T00:38:41;7.60;99.90
66920;DHT22;53831;52.090;17.026;2023-05-07T00:39:42;7.60;99.90
66920;DHT22;53831;52.090;17.026;2023-05-07T00:40:42;7.60;99.90
66920;DHT22;53831;52.090;17.026;2023-05-07T00:41:43;7.60;99.90
66920;DHT22;53831;52.090;17.026;2023-05-07T00:42:44;7.60;99.90
66920;DHT22;53831;52.090;17.026;2023-05-07T00:43:47;7.60;99.90
66920;DHT22;53831;52.090;17.026;2023-05-07T00:44:48;7.60;99.90
66920;DHT22;53831;52.090;17.026;2023-05-07T00:45:48;7.60;99.90
66920;DHT22;53831;52.090;17.026;2023-05-07T00:46:49;7.60;99.90
66920;DHT22;53831;52.090;17.026;2023-05-07T00:47:50;7.60;99.90
66920;DHT22;53831;52.090;17.026;2023-05-07T00:48:51;7.60;99.90
66920;DHT22;53831;52.090;17.026;2023-05-07T00:49:51;7.60;99.90
66920;DHT22;53831;52.090;17.026;2023-05-07T00:50:52;7.60;99.90
66920;DHT22;53831;52.090;17.026;2023-05-07T00:51:53;7.60;99.90
66920;DHT22;53831;52.090;17.026;2023-05-07T00:52:53;7.60;99.90
66920;DHT22;53831;52.090;17.026;2023-05-07T00:53:54;7.60;99.90
66920;DHT22;53831;52.090;17.026;2023-05-07T00:54:55;7.50;99.90
66920;DHT22;53831;52.090;17.026;2023-05-07T00:55:56;7.50;99.90
66920;DHT22;53831;52.090;17.026;2023-05-07T00:56:56;7.50;99.90
66920;DHT22;53831;52.090;17.026;2023-05-07T00:57:57;7.50;99.90
66920;DHT22;53831;52.090;17.026;2023-05-07T00:58:58;7.50;99.90
66920;DHT22;53831;52.090;17.026;2023-05-07T00:59:58;7.50;99.90
66920;DHT22;53831;52.090;17.026;2023-05-07T01:00:59;7.50;99.90
66920;DHT22;53831;52.090;17.026;2023-05-07T01:01:59;7.50;99.90
66920;DHT22;53831;52.090;17.026;2023-05-07T01:03:00;7.50;99.90
66920;DHT22;53831;52.090;17.026;2023-05-07T01:04:01;7.50;99.90
66920;DHT22;53831;52.090;17.026;2023-05-07T01:05:02;7.50;99.90
66920;DHT22;53831;52.090;17.026;2023-05-07T01:06:06;7.50;99.90
66920;DHT22;53831;52.090;17.026;2023-05-07T01:07:07;7.50;99.90
66920;DHT22;53831;52.090;17.026;2023-05-07T01:08:08;7.50;99.90
66920;DHT22;53831;52.090;17.026;2023-05-07T01:09:09;7.50;99.90
66920;DHT22;53831;52.090;17.026;2023-05-07T01:10:09;7.50;99.90
66920;DHT22;53831;52.090;17.026;2023-05-07T01:11:10;7.50;99.90
66920;DHT22;53831;52.090;17.026;2023-05-07T01:12:12;7.40;99.90
66920;DHT22;53831;52.090;17.026;2023-05-07T01:13:13;7.50;99.90
66920;DHT22;53831;52.090;17.026;2023-05-07T01:14:14;7.40;99.90
66920;DHT22;53831;52.090;17.026;2023-05-07T01:15:15;7.40;99.90
66920;DHT22;53831;52.090;17.026;2023-05-07T01:16:16;7.40;99.90
66920;DHT22;53831;52.090;17.026;2023-05-07T01:17:17;7.40;99.90
66920;DHT22;53831;52.090;17.026;2023-05-07T01:18:18;7.40;99.90
66920;DHT22;53831;52.090;17.026;2023-05-07T01:19:19;7.40;99.90
66920;DHT22;53831;52.090;17.026;2023-05-07T01:20:20;7.40;99.90
66920;DHT22;53831;52.090;17.026;2023-05-07T01:21:24;7.40;99.90
66920;DHT22;53831;52.090;17.026;2023-05-07T01:22:31;7.40;99.90
66920;DHT22;53831;52.090;17.026;2023-05-07T01:23:33;7.40;99.90
66920;DHT22;53831;52.090;17.026;2023-05-07T01:24:34;7.40;99.90
66920;DHT22;53831;52.090;17.026;2023-05-07T01:25:36;7.30;99.90
66920;DHT22;53831;52.090;17.026;2023-05-07T01:26:37;7.30;99.90
66920;DHT22;53831;52.090;17.026;2023-05-07T01:27:38;7.30;99.90
66920;DHT22;53831;52.090;17.026;2023-05-07T01:28:39;7.30;99.90
66920;DHT22;53831;52.090;17.026;2023-05-07T01:29:39;7.30;99.90
66920;DHT22;53831;52.090;17.026;2023-05-07T01:30:40;7.30;99.90
66920;DHT22;53831;52.090;17.026;2023-05-07T01:31:42;7.30;99.90
66920;DHT22;53831;52.090;17.026;2023-05-07T01:32:51;7.30;99.90
66920;DHT22;53831;52.090;17.026;2023-05-07T01:33:52;7.30;99.90
66920;DHT22;53831;52.090;17.026;2023-05-07T01:34:53;7.30;99.90
66920;DHT22;53831;52.090;17.026;2023-05-07T01:35:54;7.30;99.90
66920;DHT22;53831;52.090;17.026;2023-05-07T01:36:55;7.20;99.90
66920;DHT22;53831;52.090;17.026;2023-05-07T01:37:59;7.20;99.90
66920;DHT22;53831;52.090;17.026;2023-05-07T01:39:00;7.30;99.90
66920;DHT22;53831;52.090;17.026;2023-05-07T01:40:01;7.20;99.90
66920;DHT22;53831;52.090;17.026;2023-05-07T01:41:02;7.20;99.90
66920;DHT22;53831;52.090;17.026;2023-05-07T01:42:03;7.20;99.90
66920;DHT22;53831;52.090;17.026;2023-05-07T01:43:03;7.20;99.90
66920;DHT22;53831;52.090;17.026;2023-05-07T01:44:06;7.20;99.90
66920;DHT22;53831;52.090;17.026;2023-05-07T01:45:06;7.20;99.90
66920;DHT22;53831;52.090;17.026;2023-05-07T01:46:07;7.20;99.90
66920;DHT22;53831;52.090;17.026;2023-05-07T01:47:10;7.10;99.90
66920;DHT22;53831;52.090;17.026;2023-05-07T01:48:11;7.10;99.90
66920;DHT22;53831;52.090;17.026;2023-05-07T01:49:13;7.10;99.90
66920;DHT22;53831;52.090;17.026;2023-05-07T01:50:13;7.10;99.90
66920;DHT22;53831;52.090;17.026;2023-05-07T01:51:16;7.10;99.90
66920;DHT22;53831;52.090;17.026;2023-05-07T01:52:17;7.10;99.90
66920;DHT22;53831;52.090;17.026;2023-05-07T01:53:17;7.10;99.90
66920;DHT22;53831;52.090;17.026;2023-05-07T01:54:18;7.10;99.90
66920;DHT22;53831;52.090;17.026;2023-05-07T01:55:19;7.10;99.90
66920;DHT22;53831;52.090;17.026;2023-05-07T01:56:20;7.10;99.90
66920;DHT22;53831;52.090;17.026;2023-05-07T01:57:21;7.10;99.90
66920;DHT22;53831;52.090;17.026;2023-05-07T01:58:22;7.00;99.90
66920;DHT22;53831;52.090;17.026;2023-05-07T01:59:22;7.10;99.90
66920;DHT22;53831;52.090;17.026;2023-05-07T02:00:23;7.00;99.90
66920;DHT22;53831;52.090;17.026;2023-05-07T02:01:24;7.00;99.90
66920;DHT22;53831;52.090;17.026;2023-05-07T02:02:25;7.00;99.90
66920;DHT22;53831;52.090;17.026;2023-05-07T02:03:26;7.00;99.90
66920;DHT22;53831;52.090;17.026;2023-05-07T02:04:31;7.00;99.90
66920;DHT22;53831;52.090;17.026;2023-05-07T02:05:32;7.00;99.90
66920;DHT22;53831;52.090;17.026;2023-05-07T02:06:37;6.90;99.90
66920;DHT22;53831;52.090;17.026;2023-05-07T02:07:39;6.90;99.90
66920;DHT22;53831;52.090;17.026;2023-05-07T02:08:40;6.90;99.90
66920;DHT22;53831;52.090;17.026;2023-05-07T02:09:41;6.90;99.90
66920;DHT22;53831;52.090;17.026;2023-05-07T02:10:42;6.90;99.90
66920;DHT22;53831;52.090;17.026;2023-05-07T02:11:43;6.90;99.90
66920;DHT22;53831;52.090;17.026;2023-05-07T02:12:44;6.90;99.90
66920;DHT22;53831;52.090;17.026;2023-05-07T02:13:45;6.80;99.90
66920;DHT22;53831;52.090;17.026;2023-05-07T02:14:45;6.80;99.90
66920;DHT22;53831;52.090;17.026;2023-05-07T02:15:46;6.80;99.90
66920;DHT22;53831;52.090;17.026;2023-05-07T02:16:50;6.80;99.90
66920;DHT22;53831;52.090;17.026;2023-05-07T02:18:01;6.70;99.90
66920;DHT22;53831;52.090;17.026;2023-05-07T02:19:05;6.70;99.90
66920;DHT22;53831;52.090;17.026;2023-05-07T02:20:06;6.70;99.90
66920;DHT22;53831;52.090;17.026;2023-05-07T02:21:16;6.70;99.90
66920;DHT22;53831;52.090;17.026;2023-05-07T02:22:17;6.60;99.90
66920;DHT22;53831;52.090;17.026;2023-05-07T02:23:18;6.70;99.90
66920;DHT22;53831;52.090;17.026;2023-05-07T02:24:19;6.70;99.90
66920;DHT22;53831;52.090;17.026;2023-05-07T02:25:19;6.70;99.90
66920;DHT22;53831;52.090;17.026;2023-05-07T02:26:20;6.70;99.90
66920;DHT22;53831;52.090;17.026;2023-05-07T02:27:22;6.70;99.90
66920;DHT22;53831;52.090;17.026;2023-05-07T02:28:22;6.70;99.90
66920;DHT22;53831;52.090;17.026;2023-05-07T02:29:26;6.70;99.90
66920;DHT22;53831;52.090;17.026;2023-05-07T02:30:28;6.70;99.90
66920;DHT22;53831;52.090;17.026;2023-05-07T02:31:29;6.80;99.90
66920;DHT22;53831;52.090;17.026;2023-05-07T02:32:29;6.80;99.90
66920;DHT22;53831;52.090;17.026;2023-05-07T02:33:30;6.80;99.90
66920;DHT22;53831;52.090;17.026;2023-05-07T02:34:31;6.80;99.90
66920;DHT22;53831;52.090;17.026;2023-05-07T02:35:32;6.80;99.90
66920;DHT22;53831;52.090;17.026;2023-05-07T02:36:32;6.90;99.90
66920;DHT22;53831;52.090;17.026;2023-05-07T02:37:38;6.80;99.90
66920;DHT22;53831;52.090;17.026;2023-05-07T02:38:39;6.90;99.90
66920;DHT22;53831;52.090;17.026;2023-05-07T02:39:40;6.90;99.90
66920;DHT22;53831;52.090;17.026;2023-05-07T02:40:40;6.90;99.90
66920;DHT22;53831;52.090;17.026;2023-05-07T02:41:42;6.90;99.90
66920;DHT22;53831;52.090;17.026;2023-05-07T02:42:42;6.90;99.90
66920;DHT22;53831;52.090;17.026;2023-05-07T02:43:43;6.90;99.90
66920;DHT22;53831;52.090;17.026;2023-05-07T02:44:43;6.90;99.90
66920;DHT22;53831;52.090;17.026;2023-05-07T02:45:44;6.90;99.90
66920;DHT22;53831;52.090;17.026;2023-05-07T02:46:45;7.00;99.90
66920;DHT22;53831;52.090;17.026;2023-05-07T02:47:46;7.00;99.90
66920;DHT22;53831;52.090;17.026;2023-05-07T02:48:47;7.00;99.90
66920;DHT22;53831;52.090;17.026;2023-05-07T02:49:47;7.10;99.90
66920;DHT22;53831;52.090;17.026;2023-05-07T02:50:48;7.00;99.90
66920;DHT22;53831;52.090;17.026;2023-05-07T02:51:49;7.00;99.90
66920;DHT22;53831;52.090;17.026;2023-05-07T02:52:53;7.00;99.90
66920;DHT22;53831;52.090;17.026;2023-05-07T02:53:53;7.00;99.90
66920;DHT22;53831;52.090;17.026;2023-05-07T02:54:55;7.00;99.90
66920;DHT22;53831;52.090;17.026;2023-05-07T02:55:56;7.00;99.90
66920;DHT22;53831;52.090;17.026;2023-05-07T02:56:57;7.00;99.90
66920;DHT22;53831;52.090;17.026;2023-05-07T02:57:58;7.00;99.90
66920;DHT22;53831;52.090;17.026;2023-05-07T02:59:00;7.00;99.90
66920;DHT22;53831;52.090;17.026;2023-05-07T03:00:13;7.00;99.90
66920;DHT22;53831;52.090;17.026;2023-05-07T03:01:14;7.00;99.90
66920;DHT22;53831;52.090;17.026;2023-05-07T03:02:37;7.00;99.90
66920;DHT22;53831;52.090;17.026;2023-05-07T03:03:37;7.00;99.90
66920;DHT22;53831;52.090;17.026;2023-05-07T03:04:39;7.00;99.90
66920;DHT22;53831;52.090;17.026;2023-05-07T03:05:40;7.00;99.90
66920;DHT22;53831;52.090;17.026;2023-05-07T03:06:40;7.00;99.90
66920;DHT22;53831;52.090;17.026;2023-05-07T03:07:41;7.00;99.90
66920;DHT22;53831;52.090;17.026;2023-05-07T03:08:46;7.00;99.90
66920;DHT22;53831;52.090;17.026;2023-05-07T03:09:46;7.00;99.90
66920;DHT22;53831;52.090;17.026;2023-05-07T03:10:47;7.00;99.90
66920;DHT22;53831;52.090;17.026;2023-05-07T03:11:48;7.00;99.90
66920;DHT22;53831;52.090;17.026;2023-05-07T03:12:48;7.00;99.90
66920;DHT22;53831;52.090;17.026;2023-05-07T03:13:50;7.00;99.90
66920;DHT22;53831;52.090;17.026;2023-05-07T03:14:51;7.00;99.90
66920;DHT22;53831;52.090;17.026;2023-05-07T03:15:52;7.00;99.90
66920;DHT22;53831;52.090;17.026;2023-05-07T03:16:52;7.00;99.90
66920;DHT22;53831;52.090;17.026;2023-05-07T03:17:53;7.00;99.90
66920;DHT22;53831;52.090;17.026;2023-05-07T03:18:54;7.00;99.90
66920;DHT22;53831;52.090;17.026;2023-05-07T03:19:54;7.00;99.90
66920;DHT22;53831;52.090;17.026;2023-05-07T03:20:55;7.00;99.90
66920;DHT22;53831;52.090;17.026;2023-05-07T03:21:57;7.00;99.90
66920;DHT22;53831;52.090;17.026;2023-05-07T03:22:57;7.00;99.90
66920;DHT22;53831;52.090;17.026;2023-05-07T03:23:58;7.00;99.90
66920;DHT22;53831;52.090;17.026;2023-05-07T03:24:59;7.00;99.90
66920;DHT22;53831;52.090;17.026;2023-05-07T03:26:00;7.00;99.90
66920;DHT22;53831;52.090;17.026;2023-05-07T03:27:00;7.00;99.90
66920;DHT22;53831;52.090;17.026;2023-05-07T03:28:02;7.10;99.90
66920;DHT22;53831;52.090;17.026;2023-05-07T03:29:09;7.00;99.90
66920;DHT22;53831;52.090;17.026;2023-05-07T03:30:10;7.00;99.90
66920;DHT22;53831;52.090;17.026;2023-05-07T03:31:11;7.00;99.90
66920;DHT22;53831;52.090;17.026;2023-05-07T03:32:12;7.00;99.90
66920;DHT22;53831;52.090;17.026;2023-05-07T03:33:12;7.00;99.90
66920;DHT22;53831;52.090;17.026;2023-05-07T03:34:13;7.00;99.90
66920;DHT22;53831;52.090;17.026;2023-05-07T03:35:14;7.00;99.90
66920;DHT22;53831;52.090;17.026;2023-05-07T03:36:14;7.00;99.90
66920;DHT22;53831;52.090;17.026;2023-05-07T03:37:15;7.00;99.90
66920;DHT22;53831;52.090;17.026;2023-05-07T03:38:16;7.00;99.90
66920;DHT22;53831;52.090;17.026;2023-05-07T03:39:17;7.00;99.90
66920;DHT22;53831;52.090;17.026;2023-05-07T03:40:17;7.00;99.90
66920;DHT22;53831;52.090;17.026;2023-05-07T03:41:21;7.00;99.90
66920;DHT22;53831;52.090;17.026;2023-05-07T03:42:25;7.00;99.90
66920;DHT22;53831;52.090;17.026;2023-05-07T03:43:26;7.00;99.90
66920;DHT22;53831;52.090;17.026;2023-05-07T03:44:32;7.00;99.90
66920;DHT22;53831;52.090;17.026;2023-05-07T03:45:33;7.00;99.90
66920;DHT22;53831;52.090;17.026;2023-05-07T03:46:41;7.00;99.90
66920;DHT22;53831;52.090;17.026;2023-05-07T03:47:42;7.00;99.90
66920;DHT22;53831;52.090;17.026;2023-05-07T03:48:43;7.00;99.90
66920;DHT22;53831;52.090;17.026;2023-05-07T03:49:45;7.00;99.90
66920;DHT22;53831;52.090;17.026;2023-05-07T03:50:46;7.00;99.90
66920;DHT22;53831;52.090;17.026;2023-05-07T03:51:48;7.00;99.90
66920;DHT22;53831;52.090;17.026;2023-05-07T03:52:49;7.00;99.90
66920;DHT22;53831;52.090;17.026;2023-05-07T03:53:51;7.10;99.90
66920;DHT22;53831;52.090;17.026;2023-05-07T03:54:53;7.10;99.90
66920;DHT22;53831;52.090;17.026;2023-05-07T03:55:54;7.10;99.90
66920;DHT22;53831;52.090;17.026;2023-05-07T03:56:55;7.00;99.90
66920;DHT22;53831;52.090;17.026;2023-05-07T03:57:55;7.10;99.90
66920;DHT22;53831;52.090;17.026;2023-05-07T03:58:58;7.10;99.90
66920;DHT22;53831;52.090;17.026;2023-05-07T03:59:58;7.10;99.90
66920;DHT22;53831;52.090;17.026;2023-05-07T04:00:59;7.10;99.90
66920;DHT22;53831;52.090;17.026;2023-05-07T04:02:01;7.10;99.90
66920;DHT22;53831;52.090;17.026;2023-05-07T04:03:02;7.10;99.90
66920;DHT22;53831;52.090;17.026;2023-05-07T04:04:04;7.20;99.90
66920;DHT22;53831;52.090;17.026;2023-05-07T04:05:06;7.20;99.90
66920;DHT22;53831;52.090;17.026;2023-05-07T04:06:08;7.20;99.90
66920;DHT22;53831;52.090;17.026;2023-05-07T04:07:09;7.20;99.90
66920;DHT22;53831;52.090;17.026;2023-05-07T04:08:13;7.20;99.90
66920;DHT22;53831;52.090;17.026;2023-05-07T04:09:15;7.30;99.90
66920;DHT22;53831;52.090;17.026;2023-05-07T04:10:16;7.30;99.90
66920;DHT22;53831;52.090;17.026;2023-05-07T04:11:17;7.30;99.90
66920;DHT22;53831;52.090;17.026;2023-05-07T04:12:18;7.30;99.90
66920;DHT22;53831;52.090;17.026;2023-05-07T04:13:18;7.30;99.90
66920;DHT22;53831;52.090;17.026;2023-05-07T04:14:19;7.30;99.90
66920;DHT22;53831;52.090;17.026;2023-05-07T04:15:19;7.30;99.90
66920;DHT22;53831;52.090;17.026;2023-05-07T04:16:20;7.30;99.90
66920;DHT22;53831;52.090;17.026;2023-05-07T04:17:21;7.30;99.90
66920;DHT22;53831;52.090;17.026;2023-05-07T04:18:21;7.30;99.90
66920;DHT22;53831;52.090;17.026;2023-05-07T04:19:22;7.40;99.90
66920;DHT22;53831;52.090;17.026;2023-05-07T04:20:24;7.40;99.90
66920;DHT22;53831;52.090;17.026;2023-05-07T04:21:30;7.50;99.90
66920;DHT22;53831;52.090;17.026;2023-05-07T04:22:32;7.50;99.90
66920;DHT22;53831;52.090;17.026;2023-05-07T04:23:32;7.50;99.90
66920;DHT22;53831;52.090;17.026;2023-05-07T04:24:35;7.60;99.90
66920;DHT22;53831;52.090;17.026;2023-05-07T04:25:36;7.50;99.90
66920;DHT22;53831;52.090;17.026;2023-05-07T04:26:43;7.60;99.90
66920;DHT22;53831;52.090;17.026;2023-05-07T04:27:43;7.60;99.90
66920;DHT22;53831;52.090;17.026;2023-05-07T04:28:44;7.60;99.90
66920;DHT22;53831;52.090;17.026;2023-05-07T04:29:45;7.60;99.90
66920;DHT22;53831;52.090;17.026;2023-05-07T04:30:47;7.60;99.90
66920;DHT22;53831;52.090;17.026;2023-05-07T04:31:48;7.70;99.90
66920;DHT22;53831;52.090;17.026;2023-05-07T04:32:49;7.70;99.90
66920;DHT22;53831;52.090;17.026;2023-05-07T04:33:50;7.70;99.90
66920;DHT22;53831;52.090;17.026;2023-05-07T04:34:52;7.60;99.90
66920;DHT22;53831;52.090;17.026;2023-05-07T04:35:52;7.70;99.90
66920;DHT22;53831;52.090;17.026;2023-05-07T04:36:53;7.70;99.90
66920;DHT22;53831;52.090;17.026;2023-05-07T04:37:54;7.70;99.90
66920;DHT22;53831;52.090;17.026;2023-05-07T04:38:54;7.70;99.90
66920;DHT22;53831;52.090;17.026;2023-05-07T04:39:55;7.80;99.90
66920;DHT22;53831;52.090;17.026;2023-05-07T04:40:57;7.80;99.90
66920;DHT22;53831;52.090;17.026;2023-05-07T04:41:58;7.80;99.90
66920;DHT22;53831;52.090;17.026;2023-05-07T04:42:59;7.80;99.90
66920;DHT22;53831;52.090;17.026;2023-05-07T04:44:00;7.90;99.90
66920;DHT22;53831;52.090;17.026;2023-05-07T04:45:03;7.90;99.90
66920;DHT22;53831;52.090;17.026;2023-05-07T04:46:06;7.90;99.90
66920;DHT22;53831;52.090;17.026;2023-05-07T04:47:06;8.00;99.90
66920;DHT22;53831;52.090;17.026;2023-05-07T04:48:08;8.00;99.90
66920;DHT22;53831;52.090;17.026;2023-05-07T04:49:09;8.10;99.90
66920;DHT22;53831;52.090;17.026;2023-05-07T04:50:10;8.20;99.90
66920;DHT22;53831;52.090;17.026;2023-05-07T04:51:12;8.20;99.90
66920;DHT22;53831;52.090;17.026;2023-05-07T04:52:13;8.30;99.90
66920;DHT22;53831;52.090;17.026;2023-05-07T04:53:14;8.30;99.90
66920;DHT22;53831;52.090;17.026;2023-05-07T04:54:15;8.40;99.90
66920;DHT22;53831;52.090;17.026;2023-05-07T04:55:16;8.40;99.90
66920;DHT22;53831;52.090;17.026;2023-05-07T04:56:16;8.50;99.90
66920;DHT22;53831;52.090;17.026;2023-05-07T04:57:18;8.50;99.90
66920;DHT22;53831;52.090;17.026;2023-05-07T04:58:18;8.50;99.90
66920;DHT22;53831;52.090;17.026;2023-05-07T04:59:20;8.50;99.90
66920;DHT22;53831;52.090;17.026;2023-05-07T05:00:21;8.60;99.90
66920;DHT22;53831;52.090;17.026;2023-05-07T05:01:22;8.60;99.90
66920;DHT22;53831;52.090;17.026;2023-05-07T05:02:23;8.60;99.90
66920;DHT22;53831;52.090;17.026;2023-05-07T05:03:23;8.60;99.90
66920;DHT22;53831;52.090;17.026;2023-05-07T05:04:25;8.60;99.90
66920;DHT22;53831;52.090;17.026;2023-05-07T05:05:26;8.60;99.90
66920;DHT22;53831;52.090;17.026;2023-05-07T05:06:28;8.60;99.90
66920;DHT22;53831;52.090;17.026;2023-05-07T05:07:29;8.60;99.90
66920;DHT22;53831;52.090;17.026;2023-05-07T05:08:29;8.50;99.90
66920;DHT22;53831;52.090;17.026;2023-05-07T05:09:31;8.50;99.90
66920;DHT22;53831;52.090;17.026;2023-05-07T05:10:31;8.50;99.90
66920;DHT22;53831;52.090;17.026;2023-05-07T05:11:32;8.50;99.90
66920;DHT22;53831;52.090;17.026;2023-05-07T05:12:34;8.60;99.90
66920;DHT22;53831;52.090;17.026;2023-05-07T05:13:34;8.70;99.90
66920;DHT22;53831;52.090;17.026;2023-05-07T05:14:38;8.70;99.90
66920;DHT22;53831;52.090;17.026;2023-05-07T05:15:40;8.70;99.90
66920;DHT22;53831;52.090;17.026;2023-05-07T05:16:41;8.80;99.90
66920;DHT22;53831;52.090;17.026;2023-05-07T05:17:42;8.80;99.90
66920;DHT22;53831;52.090;17.026;2023-05-07T05:18:43;8.90;99.90
66920;DHT22;53831;52.090;17.026;2023-05-07T05:19:44;8.90;99.90
66920;DHT22;53831;52.090;17.026;2023-05-07T05:20:45;9.00;99.90
66920;DHT22;53831;52.090;17.026;2023-05-07T05:21:46;9.10;99.90
66920;DHT22;53831;52.090;17.026;2023-05-07T05:22:46;9.10;99.90
66920;DHT22;53831;52.090;17.026;2023-05-07T05:23:47;9.20;99.90
66920;DHT22;53831;52.090;17.026;2023-05-07T05:24:52;9.20;99.90
66920;DHT22;53831;52.090;17.026;2023-05-07T05:25:56;9.20;99.90
66920;DHT22;53831;52.090;17.026;2023-05-07T05:26:59;9.20;99.90
66920;DHT22;53831;52.090;17.026;2023-05-07T05:28:04;9.20;99.90
66920;DHT22;53831;52.090;17.026;2023-05-07T05:29:06;9.20;99.90
66920;DHT22;53831;52.090;17.026;2023-05-07T05:30:06;9.20;99.90
66920;DHT22;53831;52.090;17.026;2023-05-07T05:31:08;9.20;99.90
66920;DHT22;53831;52.090;17.026;2023-05-07T05:32:09;9.30;99.90
66920;DHT22;53831;52.090;17.026;2023-05-07T05:33:10;9.30;99.90
66920;DHT22;53831;52.090;17.026;2023-05-07T05:34:11;9.20;99.90
66920;DHT22;53831;52.090;17.026;2023-05-07T05:35:12;9.10;99.90
66920;DHT22;53831;52.090;17.026;2023-05-07T05:36:14;9.20;99.90
66920;DHT22;53831;52.090;17.026;2023-05-07T05:37:15;9.20;99.90
66920;DHT22;53831;52.090;17.026;2023-05-07T05:38:16;9.20;99.90
66920;DHT22;53831;52.090;17.026;2023-05-07T05:39:16;9.20;99.90
66920;DHT22;53831;52.090;17.026;2023-05-07T05:40:17;9.20;99.90
66920;DHT22;53831;52.090;17.026;2023-05-07T05:41:18;9.30;99.90
66920;DHT22;53831;52.090;17.026;2023-05-07T05:42:19;9.40;99.90
66920;DHT22;53831;52.090;17.026;2023-05-07T05:43:19;9.40;99.90
66920;DHT22;53831;52.090;17.026;2023-05-07T05:44:20;9.30;99.90
66920;DHT22;53831;52.090;17.026;2023-05-07T05:45:21;9.30;99.90
66920;DHT22;53831;52.090;17.026;2023-05-07T05:46:21;9.30;99.90
66920;DHT22;53831;52.090;17.026;2023-05-07T05:47:24;9.30;99.90
66920;DHT22;53831;52.090;17.026;2023-05-07T05:48:25;9.30;99.90
66920;DHT22;53831;52.090;17.026;2023-05-07T05:49:26;9.30;99.90
66920;DHT22;53831;52.090;17.026;2023-05-07T05:50:27;9.30;99.90
66920;DHT22;53831;52.090;17.026;2023-05-07T05:51:28;9.30;99.90
66920;DHT22;53831;52.090;17.026;2023-05-07T05:52:29;9.30;99.90
66920;DHT22;53831;52.090;17.026;2023-05-07T05:53:30;9.30;99.90
66920;DHT22;53831;52.090;17.026;2023-05-07T05:54:30;9.30;99.90
66920;DHT22;53831;52.090;17.026;2023-05-07T05:55:31;9.30;99.90
66920;DHT22;53831;52.090;17.026;2023-05-07T05:56:32;9.30;99.90
66920;DHT22;53831;52.090;17.026;2023-05-07T05:57:33;9.40;99.90
66920;DHT22;53831;52.090;17.026;2023-05-07T05:58:34;9.30;99.90
66920;DHT22;53831;52.090;17.026;2023-05-07T05:59:37;9.40;99.90
66920;DHT22;53831;52.090;17.026;2023-05-07T06:00:38;9.40;99.90
66920;DHT22;53831;52.090;17.026;2023-05-07T06:01:39;9.40;99.90
66920;DHT22;53831;52.090;17.026;2023-05-07T06:02:40;9.50;99.90
66920;DHT22;53831;52.090;17.026;2023-05-07T06:03:43;9.50;99.90
66920;DHT22;53831;52.090;17.026;2023-05-07T06:04:47;9.50;99.90
66920;DHT22;53831;52.090;17.026;2023-05-07T06:05:50;9.40;99.90
66920;DHT22;53831;52.090;17.026;2023-05-07T06:06:52;9.40;99.90
66920;DHT22;53831;52.090;17.026;2023-05-07T06:07:52;9.50;99.90
66920;DHT22;53831;52.090;17.026;2023-05-07T06:08:53;9.50;99.90
66920;DHT22;53831;52.090;17.026;2023-05-07T06:09:57;9.50;99.90
66920;DHT22;53831;52.090;17.026;2023-05-07T06:10:58;9.50;99.90
66920;DHT22;53831;52.090;17.026;2023-05-07T06:11:59;9.60;99.90
66920;DHT22;53831;52.090;17.026;2023-05-07T06:13:00;9.50;99.90
66920;DHT22;53831;52.090;17.026;2023-05-07T06:14:01;9.50;99.90
66920;DHT22;53831;52.090;17.026;2023-05-07T06:15:02;9.60;99.90
66920;DHT22;53831;52.090;17.026;2023-05-07T06:16:03;9.60;99.90
66920;DHT22;53831;52.090;17.026;2023-05-07T06:17:04;9.70;99.90
66920;DHT22;53831;52.090;17.026;2023-05-07T06:18:06;9.70;99.90
66920;DHT22;53831;52.090;17.026;2023-05-07T06:19:06;9.60;99.90
66920;DHT22;53831;52.090;17.026;2023-05-07T06:20:08;9.70;99.90
66920;DHT22;53831;52.090;17.026;2023-05-07T06:21:09;9.80;99.90
66920;DHT22;53831;52.090;17.026;2023-05-07T06:22:10;9.80;99.90
66920;DHT22;53831;52.090;17.026;2023-05-07T06:23:10;9.90;99.90
66920;DHT22;53831;52.090;17.026;2023-05-07T06:24:12;9.90;99.90
66920;DHT22;53831;52.090;17.026;2023-05-07T06:25:13;9.90;99.90
66920;DHT22;53831;52.090;17.026;2023-05-07T06:26:14;10.00;99.90
66920;DHT22;53831;52.090;17.026;2023-05-07T06:27:16;10.10;99.90